Time;durP1;ratioP1;P1;durP2;ratioP2;P2;SDS_P1;SDS_P2;PMS_P1;PMS_P2;Temp;Humidity;BMP_temperature;BMP_pressure;BME280_temperature;BME280_humidity;BME280_pressure;Samples;Min_cycle;Max_cycle;Signal;HPM_P1;HPM_P2
2022/12/14 00:05:01;;;;;;;44.25;17.45;;;;;;;-4.82;68.92;99612.75;10477551;28;20090;-78
2022/12/14 00:10:05;;;;;;;44.38;17.50;;;;;;;-4.80;68.80;99601.31;10481309;28;20478;-78
2022/12/14 00:15:10;;;;;;;47.25;17.05;;;;;;;-4.77;68.52;99593.38;10493894;28;20068;-78
2022/12/14 00:20:13;;;;;;;43.78;18.42;;;;;;;-4.78;68.71;99594.25;10447289;28;20090;-77
2022/12/14 00:25:16;;;;;;;40.40;15.95;;;;;;;-4.77;68.59;99592.50;10477536;28;20041;-78
2022/12/14 00:30:20;;;;;;;40.30;16.98;;;;;;;-4.77;68.67;99576.78;10483395;28;20064;-77
2022/12/14 00:35:23;;;;;;;38.53;17.20;;;;;;;-4.75;68.60;99574.94;10475517;28;20055;-77
2022/12/14 00:40:26;;;;;;;39.95;17.10;;;;;;;-4.66;68.38;99568.56;10480427;28;20049;-78
2022/12/14 00:45:31;;;;;;;43.38;17.85;;;;;;;-4.68;68.14;99559.91;10476813;28;20045;-78
2022/12/14 00:50:33;;;;;;;36.58;16.20;;;;;;;-4.69;68.08;99555.56;10454590;28;20072;-78
2022/12/14 00:55:40;;;;;;;36.72;15.15;;;;;;;-4.66;68.06;99551.09;10453980;28;20492;-78
2022/12/14 01:00:45;;;;;;;39.45;17.65;;;;;;;-4.67;68.01;99543.28;10461605;28;20044;-78
2022/12/14 01:05:48;;;;;;;39.67;16.08;;;;;;;-4.64;67.90;99535.31;10454264;28;20049;-78
2022/12/14 01:10:51;;;;;;;36.42;15.52;;;;;;;-4.61;67.85;99537.81;10463088;28;20604;-78
2022/12/14 01:15:55;;;;;;;36.65;14.48;;;;;;;-4.59;67.64;99536.03;10478047;28;20098;-78
2022/12/14 01:21:10;;;;;;;31.05;14.68;;;;;;;-4.59;67.79;99542.13;10453609;28;20112;-78
2022/12/14 01:26:13;;;;;;;38.80;14.93;;;;;;;-4.56;67.80;99535.91;10459294;28;20036;-78
2022/12/14 01:31:20;;;;;;;30.15;14.13;;;;;;;-4.53;67.67;99523.56;10474376;28;20045;-78
2022/12/14 01:36:26;;;;;;;33.30;13.65;;;;;;;-4.55;67.64;99511.44;10469955;28;20475;-78
2022/12/14 01:41:30;;;;;;;32.53;14.57;;;;;;;-4.56;67.55;99514.94;10477508;28;20072;-79
2022/12/14 01:46:38;;;;;;;34.65;14.93;;;;;;;-4.51;67.62;99518.28;10472052;28;20508;-78
2022/12/14 01:51:48;;;;;;;40.35;14.15;;;;;;;-4.51;67.64;99507.78;10477950;28;20047;-78
2022/12/14 01:56:53;;;;;;;32.97;15.38;;;;;;;-4.53;67.62;99497.34;10479251;28;20559;-78
2022/12/14 02:02:02;;;;;;;30.63;14.00;;;;;;;-4.52;67.42;99487.75;10471974;28;20048;-78
2022/12/14 02:07:05;;;;;;;34.80;14.90;;;;;;;-4.52;67.62;99493.84;10476056;28;20039;-79
2022/12/14 02:12:13;;;;;;;32.70;14.07;;;;;;;-4.52;67.57;99485.13;10468766;28;20044;-78
2022/12/14 02:17:20;;;;;;;29.90;14.07;;;;;;;-4.55;67.48;99472.13;10467041;28;20672;-78
2022/12/14 02:23:06;;;;;;;38.03;14.25;;;;;;;-4.61;67.62;99465.28;10455859;28;20428;-78
2022/12/14 02:28:34;;;;;;;33.92;13.98;;;;;;;-4.82;67.70;99466.03;10468771;28;20478;-78
2022/12/14 02:33:48;;;;;;;31.52;13.43;;;;;;;-4.75;67.96;99467.53;10451074;28;20041;-78
2022/12/14 02:39:00;;;;;;;29.85;14.20;;;;;;;-4.69;67.90;99469.06;10469457;28;20041;-78
2022/12/14 02:44:09;;;;;;;28.08;13.13;;;;;;;-4.71;67.87;99457.81;10475493;28;20464;-78
2022/12/14 02:49:25;;;;;;;31.60;14.35;;;;;;;-4.73;67.91;99449.13;10478299;28;20040;-78
2022/12/14 02:54:36;;;;;;;31.05;14.10;;;;;;;-4.71;67.89;99448.19;10480374;28;20044;-78
2022/12/14 02:59:40;;;;;;;33.67;13.70;;;;;;;-4.72;67.92;99445.59;10475920;28;20121;-78
2022/12/14 03:04:47;;;;;;;32.38;13.50;;;;;;;-4.72;67.93;99448.22;10475008;28;20056;-78
2022/12/14 03:09:50;;;;;;;30.98;14.68;;;;;;;-4.80;67.85;99431.00;10481051;28;20048;-78
2022/12/14 03:14:55;;;;;;;29.58;12.93;;;;;;;-4.84;67.96;99428.53;10474779;28;20059;-78
2022/12/14 03:20:05;;;;;;;29.85;12.40;;;;;;;-4.88;68.02;99422.53;10478842;28;20386;-78
2022/12/14 03:25:14;;;;;;;29.13;13.48;;;;;;;-4.94;68.27;99411.41;10475888;28;20484;-78
2022/12/14 03:30:19;;;;;;;32.25;13.68;;;;;;;-4.99;68.15;99415.03;10476351;28;20075;-77
2022/12/14 03:35:49;;;;;;;31.65;13.63;;;;;;;-5.06;68.37;99403.03;10483388;28;20128;-78
2022/12/14 03:40:58;;;;;;;35.03;14.63;;;;;;;-5.10;68.18;99397.94;10474975;28;20087;-78
2022/12/14 03:46:09;;;;;;;29.05;12.60;;;;;;;-5.09;68.46;99391.81;10475299;28;20071;-79
2022/12/14 03:51:22;;;;;;;29.03;14.30;;;;;;;-5.09;68.40;99382.19;10474793;28;20045;-78
2022/12/14 03:56:37;;;;;;;30.63;12.35;;;;;;;-5.17;68.55;99372.88;10482408;28;20055;-78
2022/12/14 04:01:45;;;;;;;28.90;12.70;;;;;;;-5.20;68.74;99364.22;10473124;28;20118;-78
2022/12/14 04:06:58;;;;;;;25.00;11.60;;;;;;;-5.14;68.61;99350.06;10475566;28;20079;-78
2022/12/14 04:22:57;;;;;;;30.33;11.75;;;;;;;-5.15;68.30;99352.75;10472182;28;20473;-78
2022/12/14 04:28:04;;;;;;;28.75;13.23;;;;;;;-5.16;68.26;99343.16;10465390;28;20079;-78
2022/12/14 04:38:34;;;;;;;23.80;11.10;;;;;;;-5.19;68.41;99342.34;10476107;28;20452;-79
2022/12/14 04:43:42;;;;;;;27.80;12.38;;;;;;;-5.29;68.08;99325.25;10473500;28;20099;-78
2022/12/14 04:48:50;;;;;;;28.65;11.43;;;;;;;-5.10;67.57;99322.88;10471751;28;20490;-78
2022/12/14 04:53:59;;;;;;;20.55;10.00;;;;;;;-5.09;67.23;99316.72;10474471;28;20421;-79
2022/12/14 04:59:03;;;;;;;29.13;11.98;;;;;;;-5.13;67.01;99312.47;10456530;28;20044;-78
2022/12/14 05:04:18;;;;;;;28.85;12.18;;;;;;;-5.18;67.26;99303.94;10458714;28;20055;-78
2022/12/14 05:09:27;;;;;;;24.58;11.95;;;;;;;-5.30;67.13;99301.72;10472685;28;20041;-79
2022/12/14 05:14:37;;;;;;;25.00;11.65;;;;;;;-5.37;67.25;99295.00;10479592;28;20490;-78
2022/12/14 05:19:44;;;;;;;24.90;11.23;;;;;;;-5.36;67.02;99294.94;10467169;28;20453;-78
2022/12/14 05:24:52;;;;;;;27.55;11.13;;;;;;;-5.34;67.46;99282.66;10473240;28;20115;-78
2022/12/14 05:29:54;;;;;;;25.33;11.13;;;;;;;-5.32;67.27;99286.09;10453006;28;20048;-78
2022/12/14 05:34:57;;;;;;;25.27;10.93;;;;;;;-5.29;67.03;99275.50;10452646;28;20049;-77
2022/12/14 05:40:01;;;;;;;22.67;10.50;;;;;;;-5.33;66.90;99271.25;10469791;28;20037;-77
2022/12/14 05:45:05;;;;;;;20.52;9.98;;;;;;;-5.48;67.41;99256.09;10468725;28;20152;-77
2022/12/14 05:50:09;;;;;;;36.22;13.77;;;;;;;-5.41;67.19;99250.56;10451919;28;20072;-76
2022/12/14 05:55:13;;;;;;;23.15;11.35;;;;;;;-5.45;67.02;99241.13;10452309;28;20072;-77
2022/12/14 06:00:16;;;;;;;28.60;10.77;;;;;;;-5.52;66.91;99246.63;10476999;28;20040;-77
2022/12/14 06:05:19;;;;;;;28.95;11.88;;;;;;;-5.67;66.93;99230.53;10478455;28;20045;-77
2022/12/14 06:10:23;;;;;;;24.90;10.90;;;;;;;-5.77;67.06;99225.66;10477919;28;20041;-77
2022/12/14 06:15:27;;;;;;;23.48;12.07;;;;;;;-5.89;67.12;99225.13;10469143;28;20044;-77
2022/12/14 06:20:35;;;;;;;23.60;11.07;;;;;;;-5.89;67.54;99219.91;10473100;28;20037;-77
2022/12/14 06:25:39;;;;;;;26.40;10.35;;;;;;;-5.92;67.39;99209.56;10501721;28;20049;-76
2022/12/14 06:30:42;;;;;;;24.02;10.98;;;;;;;-5.91;67.56;99215.63;10461239;28;20094;-77
2022/12/14 06:35:46;;;;;;;33.20;12.52;;;;;;;-5.91;67.56;99202.56;10485381;28;20072;-77
2022/12/14 06:40:50;;;;;;;28.10;11.73;;;;;;;-5.87;67.52;99212.88;10478471;28;20137;-77
2022/12/14 06:45:53;;;;;;;28.75;11.25;;;;;;;-5.88;67.34;99215.53;10473957;28;20049;-78
2022/12/14 06:51:00;;;;;;;28.80;11.98;;;;;;;-6.06;67.94;99210.88;10486485;28;20067;-77
2022/12/14 06:56:09;;;;;;;26.08;10.88;;;;;;;-5.98;68.15;99206.25;10480219;28;20094;-77
2022/12/14 07:01:14;;;;;;;25.77;10.63;;;;;;;-5.95;68.19;99206.16;10469806;28;20048;-78
2022/12/14 07:06:17;;;;;;;24.63;11.45;;;;;;;-5.92;67.96;99203.47;10488217;28;20076;-78
2022/12/14 07:11:21;;;;;;;32.45;12.48;;;;;;;-5.99;67.66;99196.72;10459190;28;20477;-79
2022/12/14 07:16:25;;;;;;;31.33;12.65;;;;;;;-6.04;67.72;99198.63;10459937;28;20052;-78
2022/12/14 07:21:29;;;;;;;26.92;11.80;;;;;;;-6.05;67.66;99195.16;10478000;28;20087;-79
2022/12/14 07:26:33;;;;;;;26.15;11.45;;;;;;;-6.07;67.59;99194.34;10471008;28;20044;-78
2022/12/14 07:31:36;;;;;;;29.17;12.85;;;;;;;-6.06;69.97;99189.97;10483996;28;20670;-77
2022/12/14 07:36:39;;;;;;;18.80;11.65;;;;;;;-5.17;70.51;99195.69;10483394;28;20569;-78
2022/12/14 07:41:44;;;;;;;24.10;9.02;;;;;;;-4.09;69.69;99188.09;10475473;28;20140;-77
2022/12/14 07:46:53;;;;;;;15.43;8.93;;;;;;;-3.55;68.61;99199.00;10455851;28;20053;-78
2022/12/14 07:51:56;;;;;;;15.48;9.45;;;;;;;-3.65;65.99;99193.31;10463007;28;20075;-77
2022/12/14 07:57:00;;;;;;;33.72;17.25;;;;;;;-3.98;63.30;99190.28;10474178;28;20139;-78
2022/12/14 08:02:03;;;;;;;27.65;13.93;;;;;;;-4.62;63.49;99188.41;10455706;28;20041;-77
2022/12/14 08:07:06;;;;;;;24.83;13.13;;;;;;;-4.77;64.03;99196.84;10444526;28;20041;-78
2022/12/14 08:12:11;;;;;;;24.98;12.95;;;;;;;-4.95;64.64;99187.91;10476718;28;20082;-78
2022/12/14 08:17:14;;;;;;;25.98;12.38;;;;;;;-4.91;65.37;99178.16;10478273;28;20090;-78
2022/12/14 08:22:17;;;;;;;29.35;12.30;;;;;;;-4.99;65.34;99181.94;10482717;28;20846;-78
2022/12/14 08:27:21;;;;;;;28.67;11.82;;;;;;;-5.07;65.97;99190.97;10472062;28;20076;-78
2022/12/14 08:32:24;;;;;;;27.65;11.95;;;;;;;-5.25;66.36;99193.31;10481708;28;20044;-78
2022/12/14 08:37:34;;;;;;;28.30;12.63;;;;;;;-5.08;66.71;99197.09;10473866;28;20076;-78
2022/12/14 08:42:38;;;;;;;29.85;11.90;;;;;;;-4.99;66.60;99189.78;10482885;28;20060;-78
2022/12/14 08:47:41;;;;;;;39.55;18.02;;;;;;;-4.80;66.22;99186.47;10481231;28;20053;-78
2022/12/14 08:52:47;;;;;;;25.38;11.18;;;;;;;-4.63;65.77;99188.47;10484347;28;20311;-78
2022/12/14 08:57:51;;;;;;;22.00;11.38;;;;;;;-4.49;65.21;99175.69;10456693;28;20451;-78
2022/12/14 09:02:54;;;;;;;24.27;11.68;;;;;;;-4.35;65.17;99183.03;10443550;28;20099;-78
2022/12/14 09:07:57;;;;;;;19.58;9.65;;;;;;;-4.34;63.82;99182.09;10450994;28;20044;-77
2022/12/14 09:13:02;;;;;;;23.65;9.57;;;;;;;-4.44;63.17;99176.38;10451369;28;20526;-77
2022/12/14 09:18:05;;;;;;;20.08;9.10;;;;;;;-4.35;62.90;99186.50;10442425;28;20069;-78
2022/12/14 09:23:08;;;;;;;17.27;8.77;;;;;;;-4.28;62.81;99181.84;10468643;28;20045;-77
2022/12/14 09:28:12;;;;;;;19.88;9.93;;;;;;;-4.19;62.90;99176.28;10446672;28;20036;-77
2022/12/14 09:33:15;;;;;;;23.45;11.30;;;;;;;-4.13;63.37;99185.66;10433475;28;20579;-78
2022/12/14 09:38:18;;;;;;;25.40;12.90;;;;;;;-4.08;62.67;99181.94;10454239;28;20041;-77
2022/12/14 09:43:37;;;;;;;26.48;10.63;;;;;;;-4.13;61.99;99180.41;10447207;28;20429;-77
2022/12/14 09:48:42;;;;;;;31.92;13.77;;;;;;;-4.19;61.51;99181.50;10420691;28;20137;-77
2022/12/14 09:53:50;;;;;;;21.55;10.65;;;;;;;-4.15;61.90;99183.09;10423504;28;20069;-76
2022/12/14 09:58:56;;;;;;;17.67;10.40;;;;;;;-4.15;61.86;99182.22;10460611;23;20096;-80
2022/12/14 10:04:10;;;;;;;24.33;11.20;;;;;;;-4.16;62.20;99185.78;10401499;28;20379;-79
2022/12/14 10:09:20;;;;;;;22.15;10.98;;;;;;;-4.03;61.91;99179.13;10427281;28;20913;-80
2022/12/14 10:14:33;;;;;;;21.33;10.23;;;;;;;-2.92;61.49;99175.28;10420442;28;20045;-80
2022/12/14 10:19:51;;;;;;;18.15;8.73;;;;;;;-1.99;57.87;99164.78;10428769;28;20060;-80
2022/12/14 10:25:04;;;;;;;19.70;9.80;;;;;;;-1.41;54.46;99161.03;10473389;28;20041;-80
2022/12/14 10:30:16;;;;;;;20.45;9.75;;;;;;;-0.80;52.63;99152.53;10445260;28;20061;-80
2022/12/14 10:35:26;;;;;;;21.15;10.07;;;;;;;0.03;50.98;99142.69;10468666;28;20053;-80
2022/12/14 10:40:31;;;;;;;17.38;9.38;;;;;;;0.75;48.26;99141.06;10441677;28;20045;-80
2022/12/14 10:45:44;;;;;;;17.00;9.40;;;;;;;1.28;48.31;99133.44;10452340;28;20037;-79
2022/12/14 10:50:55;;;;;;;14.93;7.95;;;;;;;2.05;45.78;99125.88;10452910;28;20606;-80
2022/12/14 10:56:01;;;;;;;18.52;9.07;;;;;;;2.56;44.05;99131.34;10481272;28;20045;-79
2022/12/14 11:01:11;;;;;;;14.23;7.65;;;;;;;2.93;43.31;99121.69;10442528;28;20045;-80
2022/12/14 11:06:19;;;;;;;15.27;8.00;;;;;;;3.09;42.96;99113.50;10447503;28;20519;-80
2022/12/14 11:11:24;;;;;;;15.77;8.88;;;;;;;3.34;42.31;99093.19;10452292;28;20037;-81
2022/12/14 11:16:36;;;;;;;15.45;8.50;;;;;;;3.43;41.79;99095.22;10470286;28;20041;-80
2022/12/14 11:21:39;;;;;;;15.80;8.10;;;;;;;3.20;41.55;99094.19;10450849;28;20046;-81
2022/12/14 11:26:43;;;;;;;13.18;7.00;;;;;;;3.45;41.90;99086.16;10465329;28;20068;-80
2022/12/14 11:31:51;;;;;;;12.18;7.03;;;;;;;3.26;41.64;99085.78;10442042;28;20122;-80
2022/12/14 11:36:54;;;;;;;14.65;7.40;;;;;;;4.36;41.05;99077.66;10430991;28;20093;-81
2022/12/14 11:42:01;;;;;;;14.50;8.85;;;;;;;4.31;39.92;99076.31;10422021;28;20379;-81
2022/12/14 11:47:12;;;;;;;13.65;7.40;;;;;;;4.57;39.92;99069.84;10422538;28;20432;-80
2022/12/14 11:52:18;;;;;;;11.73;7.80;;;;;;;3.43;40.52;99066.84;10422713;28;20045;-80
2022/12/14 11:57:30;;;;;;;15.38;8.38;;;;;;;3.59;41.87;99063.06;10436664;28;20049;-81
2022/12/14 12:02:37;;;;;;;15.02;8.27;;;;;;;3.83;41.51;99069.22;10465192;28;20531;-80
2022/12/14 12:07:44;;;;;;;13.68;8.02;;;;;;;4.12;40.49;99075.03;10481860;28;20041;-80
2022/12/14 12:12:49;;;;;;;12.55;7.70;;;;;;;4.36;39.87;99072.34;10470197;28;20045;-80
2022/12/14 12:18:01;;;;;;;15.85;7.97;;;;;;;4.48;40.51;99062.56;10464042;28;20037;-79
2022/12/14 12:23:11;;;;;;;14.52;7.75;;;;;;;4.14;40.36;99051.00;10480062;28;20041;-79
2022/12/14 12:28:20;;;;;;;13.40;8.02;;;;;;;3.60;40.89;99052.34;10470384;28;20041;-80
2022/12/14 12:33:31;;;;;;;14.10;7.90;;;;;;;3.40;42.06;99060.91;10472582;28;20132;-79
2022/12/14 12:38:45;;;;;;;13.23;7.95;;;;;;;3.18;42.36;99069.56;10477552;28;20036;-79
2022/12/14 12:43:55;;;;;;;15.43;8.75;;;;;;;3.26;41.81;99061.88;10502397;28;20110;-80
2022/12/14 12:49:04;;;;;;;14.60;9.38;;;;;;;3.48;42.21;99055.88;10495332;28;20110;-81
2022/12/14 12:54:12;;;;;;;13.75;8.00;;;;;;;3.67;42.38;99050.91;10481437;28;20040;-81
2022/12/14 12:59:19;;;;;;;14.80;8.75;;;;;;;3.47;42.96;99047.06;10459147;28;20049;-81
2022/12/14 13:04:32;;;;;;;15.80;8.90;;;;;;;3.34;42.34;99056.03;10470982;28;20426;-81
2022/12/14 13:09:41;;;;;;;15.95;8.20;;;;;;;3.65;42.86;99052.00;10467370;28;20056;-81
2022/12/14 13:14:47;;;;;;;17.83;8.70;;;;;;;3.69;41.78;99053.47;10471224;28;20045;-79
2022/12/14 13:19:56;;;;;;;19.05;11.93;;;;;;;3.89;41.62;99054.63;10474894;28;20550;-80
2022/12/14 13:25:05;;;;;;;13.20;8.35;;;;;;;3.56;41.70;99052.66;10477425;28;20047;-80
2022/12/14 13:30:22;;;;;;;15.15;8.57;;;;;;;3.34;42.28;99053.38;10518220;28;20071;-80
2022/12/14 13:35:50;;;;;;;12.27;8.38;;;;;;;3.02;42.41;99044.13;10501241;28;20091;-81
2022/12/14 13:41:07;;;;;;;21.15;9.13;;;;;;;2.80;43.11;99042.16;10462724;28;20048;-81
2022/12/14 13:46:20;;;;;;;16.85;9.73;;;;;;;2.88;43.42;99046.03;10478520;28;20432;-81
2022/12/14 13:51:29;;;;;;;14.95;9.65;;;;;;;2.84;43.67;99040.13;10460303;28;20044;-82
2022/12/14 13:56:36;;;;;;;15.93;9.63;;;;;;;2.48;43.21;99047.00;10497152;28;20055;-81
2022/12/14 14:01:56;;;;;;;21.08;12.13;;;;;;;2.19;44.35;99051.63;10456862;28;20492;-82
2022/12/14 14:07:40;;;;;;;36.28;15.38;;;;;;;2.14;44.67;99054.59;10468641;28;20052;-80
2022/12/14 14:12:45;;;;;;;53.90;19.20;;;;;;;2.00;44.76;99054.66;10442087;28;20075;-81
2022/12/14 14:17:51;;;;;;;72.38;25.90;;;;;;;1.86;45.33;99060.00;10457503;28;20071;-79
2022/12/14 14:23:32;;;;;;;26.00;14.48;;;;;;;1.89;45.49;99058.03;10482588;28;20052;-80
2022/12/14 14:28:37;;;;;;;18.88;10.32;;;;;;;1.59;46.12;99068.84;10495347;28;20122;-81
2022/12/14 14:33:44;;;;;;;17.88;9.98;;;;;;;1.31;46.76;99055.66;10486595;28;20044;-80
2022/12/14 14:38:51;;;;;;;19.15;11.38;;;;;;;0.95;47.10;99057.88;10473042;28;20075;-80
2022/12/14 14:44:00;;;;;;;19.40;12.05;;;;;;;0.61;47.93;99067.91;10488911;28;20044;-80
2022/12/14 14:49:04;;;;;;;21.40;12.40;;;;;;;-0.04;48.98;99075.31;10493710;28;20044;-83
2022/12/14 14:54:29;;;;;;;24.88;13.50;;;;;;;-0.60;50.70;99077.63;10467780;28;20047;-78
2022/12/14 15:00:00;;;;;;;22.73;12.10;;;;;;;-0.87;51.62;99085.25;10489539;28;20044;-80
2022/12/14 15:05:05;;;;;;;35.53;18.90;;;;;;;-1.12;52.48;99095.44;10482835;28;20052;-80
2022/12/14 15:10:34;;;;;;;21.23;11.95;;;;;;;-1.28;53.44;99088.31;10467993;28;20295;-79
2022/12/14 15:15:42;;;;;;;32.97;16.42;;;;;;;-1.40;53.58;99092.47;10460613;28;20037;-80
2022/12/14 15:20:55;;;;;;;24.50;12.50;;;;;;;-1.66;54.89;99103.50;10485406;28;20094;-80
2022/12/14 15:26:00;;;;;;;21.58;11.43;;;;;;;-1.88;55.75;99111.63;10484132;28;20036;-80
2022/12/14 15:31:05;;;;;;;23.45;10.95;;;;;;;-2.14;56.09;99105.88;10481943;28;20042;-79
2022/12/14 15:36:14;;;;;;;21.77;11.10;;;;;;;-2.17;56.57;99119.16;10486520;28;20045;-80
2022/12/14 15:41:18;;;;;;;22.08;10.85;;;;;;;-2.22;56.61;99123.81;10472316;28;20041;-80
2022/12/14 15:46:27;;;;;;;23.27;11.98;;;;;;;-2.31;57.21;99121.63;10461535;28;20083;-80
2022/12/14 15:51:32;;;;;;;22.10;12.13;;;;;;;-2.34;57.73;99106.81;10480400;28;20087;-80
2022/12/14 15:56:38;;;;;;;54.47;23.58;;;;;;;-2.36;57.92;99110.47;10484843;28;20069;-80
2022/12/14 16:01:45;;;;;;;50.70;21.35;;;;;;;-2.36;58.06;99121.84;10350686;23;1173491;-81
2022/12/14 16:07:02;;;;;;;39.08;17.35;;;;;;;-2.46;58.19;99114.47;10374350;28;20054;-80
2022/12/14 16:12:19;;;;;;;32.17;14.93;;;;;;;-2.54;58.28;99127.97;10364101;28;20050;-80
2022/12/14 16:17:29;;;;;;;30.40;16.30;;;;;;;-2.58;58.45;99115.88;10345539;28;20118;-79
2022/12/14 16:22:33;;;;;;;35.08;16.48;;;;;;;-2.64;58.68;99121.44;10346996;28;20434;-80
2022/12/14 16:27:38;;;;;;;28.98;16.05;;;;;;;-2.71;58.84;99125.25;10340797;28;20041;-81
2022/12/14 16:32:43;;;;;;;28.83;14.20;;;;;;;-2.73;58.89;99130.63;10349756;28;20133;-78
2022/12/14 16:37:54;;;;;;;28.52;14.75;;;;;;;-2.79;58.94;99130.91;10342215;28;20136;-79
2022/12/14 16:43:00;;;;;;;28.58;13.82;;;;;;;-2.89;59.10;99119.09;10352265;28;20158;-79
2022/12/14 16:48:14;;;;;;;32.95;15.85;;;;;;;-2.83;59.10;99126.69;10351280;28;20632;-80
2022/12/14 16:59:10;;;;;;;34.55;16.58;;;;;;;-2.97;59.06;99145.72;10335012;28;20039;-79
2022/12/14 17:04:22;;;;;;;32.90;16.98;;;;;;;-3.15;59.58;99144.78;10318092;28;20045;-79
2022/12/14 17:09:27;;;;;;;34.08;16.75;;;;;;;-3.33;60.17;99151.69;10326687;28;20498;-80
2022/12/14 17:14:30;;;;;;;35.35;18.15;;;;;;;-3.35;60.45;99157.91;10295607;28;20038;-78
2022/12/14 17:19:38;;;;;;;33.67;14.55;;;;;;;-3.49;60.53;99162.00;10367179;28;20073;-78
2022/12/14 17:24:41;;;;;;;27.92;14.13;;;;;;;-3.64;60.93;99168.75;10347499;28;20061;-79
2022/12/14 17:29:44;;;;;;;27.00;13.40;;;;;;;-3.75;61.26;99167.50;10365740;28;20097;-78
2022/12/14 17:34:48;;;;;;;30.20;14.63;;;;;;;-3.74;61.90;99174.44;10322742;28;20070;-80
2022/12/14 17:39:52;;;;;;;25.25;13.25;;;;;;;-3.70;62.12;99182.16;10348894;28;20156;-79
2022/12/14 17:44:56;;;;;;;28.05;12.85;;;;;;;-3.67;62.18;99181.16;10369953;28;20100;-78
2022/12/14 17:50:01;;;;;;;24.00;13.48;;;;;;;-3.60;62.46;99177.34;10351361;28;20042;-80
2022/12/14 17:55:04;;;;;;;33.10;15.15;;;;;;;-3.80;62.36;99178.19;10364755;28;20042;-79
2022/12/14 18:05:32;;;;;;;32.63;15.23;;;;;;;-4.01;63.65;99190.41;10348114;28;20502;-79
2022/12/14 18:10:36;;;;;;;31.00;14.45;;;;;;;-3.84;63.53;99200.22;10346475;28;20055;-79
2022/12/14 18:15:41;;;;;;;32.10;14.60;;;;;;;-3.79;63.52;99200.03;10350624;28;20038;-79
2022/12/14 18:20:49;;;;;;;30.08;14.05;;;;;;;-3.69;63.13;99207.47;10337405;28;20077;-78
2022/12/14 18:25:54;;;;;;;28.42;13.43;;;;;;;-3.67;63.45;99207.41;10348299;28;20042;-79
2022/12/14 18:31:02;;;;;;;28.45;13.45;;;;;;;-3.71;63.50;99200.56;10372513;28;20105;-80
2022/12/14 18:36:12;;;;;;;29.27;13.70;;;;;;;-3.84;64.05;99197.59;10370078;28;20049;-80
2022/12/14 18:41:17;;;;;;;29.75;14.93;;;;;;;-3.97;64.65;99209.50;10351127;28;20054;-80
2022/12/14 18:46:20;;;;;;;24.63;13.57;;;;;;;-4.04;64.96;99206.25;10350635;28;20198;-78
2022/12/14 18:51:25;;;;;;;32.95;15.85;;;;;;;-4.07;65.22;99207.25;10351093;28;20042;-79
2022/12/14 18:56:29;;;;;;;32.05;14.18;;;;;;;-4.11;65.60;99213.53;10346153;28;20030;-77
2022/12/14 19:01:32;;;;;;;30.88;14.63;;;;;;;-4.12;65.93;99221.44;10357792;28;20054;-78
2022/12/14 19:06:38;;;;;;;33.65;15.85;;;;;;;-4.15;65.72;99217.19;10353562;28;20066;-79
2022/12/14 19:11:47;;;;;;;28.92;15.45;;;;;;;-4.18;65.76;99225.16;10354034;28;20066;-78
2022/12/14 19:16:50;;;;;;;28.27;15.18;;;;;;;-4.25;65.92;99220.22;10349642;28;20062;-78
2022/12/14 19:21:54;;;;;;;29.60;14.93;;;;;;;-4.44;66.37;99228.81;10352131;28;20050;-78
2022/12/14 19:26:57;;;;;;;28.05;14.15;;;;;;;-4.43;66.44;99227.03;10354043;28;20054;-78
2022/12/14 19:32:00;;;;;;;33.25;15.80;;;;;;;-4.45;66.43;99229.69;10366324;28;20050;-79
2022/12/14 19:37:08;;;;;;;29.40;14.45;;;;;;;-4.59;66.18;99240.69;10327534;28;20056;-78
2022/12/14 19:42:12;;;;;;;33.00;16.77;;;;;;;-4.52;66.14;99228.25;10344812;28;20043;-78
2022/12/14 19:47:15;;;;;;;27.83;14.27;;;;;;;-4.64;66.89;99239.16;10345167;28;20542;-78
2022/12/14 19:52:20;;;;;;;30.67;15.02;;;;;;;-4.49;66.89;99245.63;10344854;28;20058;-77
2022/12/14 19:57:23;;;;;;;28.00;15.35;;;;;;;-4.54;66.40;99251.88;10342702;28;20042;-78
2022/12/14 20:02:26;;;;;;;31.98;16.90;;;;;;;-4.60;66.60;99244.25;10334642;28;20050;-78
2022/12/14 20:07:31;;;;;;;38.35;15.43;;;;;;;-4.65;67.03;99253.19;10329322;28;20114;-78
2022/12/14 20:12:34;;;;;;;29.58;14.60;;;;;;;-4.64;66.85;99253.13;10342134;28;20065;-79
2022/12/14 20:17:40;;;;;;;36.75;15.10;;;;;;;-4.68;67.04;99250.69;10349420;28;20042;-79
2022/12/14 20:23:00;;;;;;;31.83;15.38;;;;;;;-4.69;67.14;99246.34;10336539;28;20054;-79
2022/12/14 20:28:10;;;;;;;31.98;14.95;;;;;;;-4.64;67.13;99262.75;10351506;28;20046;-80
2022/12/14 20:33:14;;;;;;;28.45;13.10;;;;;;;-4.67;67.02;99273.34;10351164;28;20057;-79
2022/12/14 20:38:21;;;;;;;30.42;15.32;;;;;;;-4.65;66.91;99263.69;10352120;28;20045;-79
2022/12/14 20:43:24;;;;;;;32.45;15.57;;;;;;;-4.69;67.43;99277.78;10358720;28;20034;-80
2022/12/14 20:48:27;;;;;;;28.17;13.68;;;;;;;-4.71;66.93;99274.38;10359195;28;20109;-79
2022/12/14 20:53:31;;;;;;;31.02;15.07;;;;;;;-4.69;67.01;99294.34;10358662;28;20096;-79
2022/12/14 20:58:35;;;;;;;33.75;15.52;;;;;;;-4.63;66.96;99299.41;10350203;28;20038;-79
2022/12/14 21:03:38;;;;;;;35.42;15.48;;;;;;;-4.67;66.58;99313.50;10367635;28;20102;-78
2022/12/14 21:09:03;;;;;;;32.22;15.00;;;;;;;-4.67;66.43;99320.53;10357590;28;20046;-80
2022/12/14 21:14:06;;;;;;;29.95;13.65;;;;;;;-4.76;66.76;99322.56;10358059;28;20097;-78
2022/12/14 21:24:49;;;;;;;31.15;14.73;;;;;;;-5.11;66.91;99331.63;10362865;28;20058;-79
2022/12/14 21:30:13;;;;;;;30.70;14.75;;;;;;;-5.09;67.45;99329.81;10361718;28;20101;-79
2022/12/14 21:35:17;;;;;;;30.40;14.85;;;;;;;-5.02;67.65;99325.22;10350873;28;20046;-79
2022/12/14 21:45:42;;;;;;;31.48;15.75;;;;;;;-4.97;67.40;99339.84;10354582;28;20048;-79
2022/12/14 21:50:48;;;;;;;30.58;14.95;;;;;;;-4.97;67.57;99332.00;10364740;28;20050;-79
2022/12/14 21:58:14;;;;;;;32.95;14.15;;;;;;;-4.99;67.61;99336.47;10353790;28;20138;-79
2022/12/14 22:01:15;;;;;;;36.67;15.48;;;;;;;-4.94;67.62;99338.06;10350000;28;20078;-79
2022/12/14 22:06:19;;;;;;;33.38;15.90;;;;;;;-4.99;67.15;99330.34;10358474;28;20092;-79
2022/12/14 22:11:23;;;;;;;31.52;16.30;;;;;;;-5.15;67.13;99339.66;10347977;28;20053;-79
2022/12/14 22:16:26;;;;;;;32.85;16.00;;;;;;;-5.23;66.90;99338.13;10437867;23;20053;-80
2022/12/14 22:21:29;;;;;;;34.80;16.40;;;;;;;-5.37;66.71;99340.34;10489986;28;20037;-81
2022/12/14 22:26:33;;;;;;;31.45;14.63;;;;;;;-5.45;67.37;99337.97;10467625;28;20045;-81
2022/12/14 22:31:37;;;;;;;32.30;14.38;;;;;;;-5.43;67.83;99332.66;10452881;28;20048;-80
2022/12/14 22:36:40;;;;;;;32.72;14.98;;;;;;;-5.35;68.13;99343.75;10451598;28;20037;-80
2022/12/14 22:41:44;;;;;;;30.25;14.23;;;;;;;-5.26;68.59;99343.47;10451563;28;20081;-80
2022/12/14 22:46:48;;;;;;;29.90;13.23;;;;;;;-5.34;68.93;99348.09;10433153;28;20053;-80
2022/12/14 22:51:51;;;;;;;33.67;15.65;;;;;;;-5.53;69.59;99358.28;10430279;28;20099;-80
2022/12/14 22:57:00;;;;;;;33.10;14.93;;;;;;;-5.44;69.26;99373.69;10443196;28;20430;-81
2022/12/14 23:02:03;;;;;;;32.28;14.82;;;;;;;-5.49;69.36;99378.22;10445285;28;20236;-81
2022/12/14 23:07:06;;;;;;;38.55;14.20;;;;;;;-5.47;69.58;99370.34;10447962;28;20053;-81
